^^
Station Historical Data
Daily Summary for August 5, 2017 Units:  English    Metric   Both
« Previous Day
Next Day »
Daily Weekly Monthly Yearly Custom
  High: Low: Average:
Temperature: 79.5 °F 66.7 °F 72.4 °F
Dew Point: 70.5 °F 56.2 °F 65.2 °F
Humidity: 97% 54% 80%
Wind Speed: 6.0mph 0.0mph 1.6mph
Wind Gust: 14.0mph - -
Wind- - SSW
Pressure: 29.97 in 29.83 in -
Precipitation: 1.47 in    
Historical Graphs
 
 
Tabular Data for August 5, 2017
Time Temperature Dew Point Pressure Wind Wind Speed Wind Gust Humidity Rainfall Rate (Hourly) Conditions
00:00 72.2 °F 68.8 °F 29.93 in SW 1.0 mph 8.0 mph 89% 0.00 in RA
00:15 72.2 °F 69.1 °F 29.93 in SSW 2.0 mph 6.0 mph 90% 0.00 in BKN
00:30 72.2 °F 69.4 °F 29.93 in Calm   3.0 mph 91% 0.00 in BKN
00:45 72.5 °F 70.0 °F 29.93 in SW 1.0 mph 4.0 mph 92% 0.00 in BKN
01:00 72.9 °F 70.4 °F 29.92 in SSW 2.0 mph 4.0 mph 92% 0.00 in BKN
01:15 73.0 °F 70.2 °F 29.91 in SW 5.0 mph 8.0 mph 91% 0.00 in BKN
01:30 73.1 °F 70.0 °F 29.91 in Calm   12.0 mph 90% 0.00 in BKN
01:45 73.1 °F 70.0 °F 29.90 in SW 2.0 mph 8.0 mph 90% 0.00 in BKN
02:00 73.2 °F 69.8 °F 29.90 in SSW 1.0 mph 5.0 mph 89% 0.00 in BKN
02:15 73.1 °F 70.0 °F 29.89 in Calm   4.0 mph 90% 0.00 in BKN
02:30 73.0 °F 70.2 °F 29.89 in South 1.0 mph 4.0 mph 91% 0.00 in BKN
02:45 73.1 °F 70.3 °F 29.90 in SSW 2.0 mph 5.0 mph 91% 0.00 in BKN
03:00 73.2 °F 70.4 °F 29.89 in Calm   5.0 mph 91% 0.00 in BKN
03:15 72.9 °F 70.1 °F 29.88 in Calm   5.0 mph 91% 0.00 in BKN
03:30 72.7 °F 69.9 °F 29.88 in Calm   4.0 mph 91% 0.00 in BKN
03:45 72.4 °F 70.0 °F 29.87 in SE 1.0 mph 3.0 mph 92% 0.00 in BKN
04:00 72.7 °F 70.2 °F 29.86 in Calm   2.0 mph 92% 0.00 in BKN
04:15 72.7 °F 70.2 °F 29.86 in Calm     92% 0.00 in BKN
04:30 72.5 °F 70.4 °F 29.86 in South 1.0 mph 3.0 mph 93% 0.01 in RA
05:00 71.9 °F 70.4 °F 29.86 in WSW 1.0 mph 7.0 mph 95% 0.20 in RA
05:15 71.5 °F 70.0 °F 29.86 in Calm   4.0 mph 95% 0.26 in -RA
05:30 70.1 °F 68.3 °F 29.88 in NNW 3.0 mph 10.0 mph 94% 0.26 in -RA
05:45 67.8 °F 66.3 °F 29.88 in North 1.0 mph 7.0 mph 95% 0.44 in -RA
06:00 67.1 °F 65.9 °F 29.87 in Calm   3.0 mph 96% 0.11 in -RA
06:15 66.9 °F 65.7 °F 29.85 in Calm   1.0 mph 96% 0.05 in RA
06:30 66.7 °F 65.5 °F 29.84 in Calm   5.0 mph 96% 0.05 in RA
06:45 66.8 °F 65.9 °F 29.83 in Calm   2.0 mph 97% 0.00 in BKN
07:00 66.9 °F 66.0 °F 29.84 in Calm   2.0 mph 97% 0.00 in BKN
07:15 67.3 °F 66.4 °F 29.85 in Calm   1.0 mph 97% 0.00 in -RA
07:30 67.5 °F 66.6 °F 29.86 in Calm   1.0 mph 97% 0.00 in -RA
07:45 67.7 °F 66.8 °F 29.85 in Calm     97% 0.00 in -RA
08:00 68.1 °F 67.2 °F 29.86 in Calm   1.0 mph 97% 0.00 in -RA
08:15 68.4 °F 67.5 °F 29.86 in Calm   1.0 mph 97% 0.00 in BKN
08:30 68.5 °F 67.6 °F 29.87 in Calm   1.0 mph 97% 0.00 in BKN
08:45 68.8 °F 67.9 °F 29.87 in Calm   1.0 mph 97% 0.00 in BKN
09:00 69.0 °F 68.1 °F 29.87 in Calm   1.0 mph 97% 0.00 in BKN
09:15 69.5 °F 68.6 °F 29.88 in Calm     97% 0.00 in BKN
09:30 69.6 °F 68.7 °F 29.87 in Calm     97% 0.00 in BKN
09:45 70.7 °F 69.8 °F 29.87 in Calm   1.0 mph 97% 0.00 in BKN
10:00 70.5 °F 69.3 °F 29.88 in Calm   2.0 mph 96% 0.00 in BKN
10:15 70.6 °F 69.4 °F 29.88 in Calm   3.0 mph 96% 0.00 in BKN
10:30 70.7 °F 69.5 °F 29.88 in SSW 1.0 mph 3.0 mph 96% 0.00 in BKN
10:45 71.1 °F 69.6 °F 29.88 in SW 3.0 mph 6.0 mph 95% 0.00 in BKN
11:00 72.1 °F 70.3 °F 29.88 in SW 1.0 mph 6.0 mph 94% 0.00 in BKN
11:15 72.5 °F 70.4 °F 29.88 in South 1.0 mph 7.0 mph 93% 0.00 in -RA
11:30 72.5 °F 70.0 °F 29.88 in SSW 2.0 mph 6.0 mph 92% 0.00 in -RA
11:45 72.9 °F 70.5 °F 29.88 in SSW 1.0 mph 6.0 mph 92% 0.00 in -RA
12:00 74.4 °F 69.9 °F 29.88 in SSW 2.0 mph 8.0 mph 86% 0.00 in -RA
12:15 75.6 °F 69.4 °F 29.87 in WSW 2.0 mph 8.0 mph 81% 0.00 in BKN
12:30 75.2 °F 69.6 °F 29.87 in SSW 1.0 mph 4.0 mph 83% 0.00 in BKN
12:45 75.8 °F 68.4 °F 29.87 in South 3.0 mph 6.0 mph 78% 0.00 in BKN
13:00 75.5 °F 68.6 °F 29.87 in SW 2.0 mph 6.0 mph 79% 0.00 in BKN
13:15 74.8 °F 68.2 °F 29.87 in SSW 2.0 mph 8.0 mph 80% 0.00 in BKN
13:30 74.6 °F 67.3 °F 29.87 in SW 3.0 mph 12.0 mph 78% 0.00 in BKN
13:45 73.9 °F 65.4 °F 29.86 in South 1.0 mph 6.0 mph 75% 0.00 in BKN
14:00 75.0 °F 66.1 °F 29.86 in SSW 3.0 mph 7.0 mph 74% 0.00 in BKN
14:15 75.0 °F 65.8 °F 29.86 in SSW 3.0 mph 9.0 mph 73% 0.00 in BKN
14:30 76.8 °F 65.9 °F 29.85 in SSW 6.0 mph 14.0 mph 69% 0.00 in BKN
15:00 77.6 °F 65.7 °F 29.85 in SW 2.0 mph 9.0 mph 67% 0.00 in BKN
15:15 78.6 °F 65.4 °F 29.84 in WSW 2.0 mph 7.0 mph 64% 0.00 in SCT
15:30 79.5 °F 65.3 °F 29.84 in WSW 5.0 mph 9.0 mph 62% 0.00 in SCT
15:45 78.8 °F 64.7 °F 29.84 in SW 5.0 mph 11.0 mph 62% 0.00 in SCT
16:00 77.9 °F 64.7 °F 29.84 in SW 2.0 mph 10.0 mph 64% 0.00 in SCT
16:15 78.0 °F 63.9 °F 29.84 in SW 3.0 mph 9.0 mph 62% 0.00 in BKN
16:30 77.9 °F 64.2 °F 29.84 in SSW 5.0 mph 12.0 mph 63% 0.00 in BKN
16:45 78.2 °F 62.7 °F 29.84 in WSW 5.0 mph 12.0 mph 59% 0.00 in BKN
17:00 77.8 °F 61.4 °F 29.85 in WSW 3.0 mph 14.0 mph 57% 0.00 in BKN
17:15 78.2 °F 60.7 °F 29.85 in SW 5.0 mph 12.0 mph 55% 0.00 in SCT
17:30 78.8 °F 60.7 °F 29.85 in West 2.0 mph 9.0 mph 54% 0.00 in SCT
17:45 78.5 °F 60.5 °F 29.86 in WNW 1.0 mph 8.0 mph 54% 0.00 in SCT
18:00 77.1 °F 59.7 °F 29.86 in ESE 1.0 mph 8.0 mph 55% 0.00 in SCT
18:15 76.2 °F 59.8 °F 29.87 in SSW 2.0 mph 12.0 mph 57% 0.00 in SCT
18:30 75.6 °F 59.8 °F 29.88 in South 3.0 mph 10.0 mph 58% 0.00 in SCT
19:00 75.1 °F 57.8 °F 29.89 in SE 3.0 mph 12.0 mph 55% 0.00 in SCT
19:15 74.8 °F 57.6 °F 29.89 in SW 6.0 mph 12.0 mph 55% 0.00 in FEW
19:30 73.2 °F 57.5 °F 29.90 in South 2.0 mph 8.0 mph 58% 0.00 in FEW
19:45 72.4 °F 57.3 °F 29.91 in SSW 2.0 mph 8.0 mph 59% 0.00 in FEW
20:00 71.8 °F 57.2 °F 29.91 in SSW 3.0 mph 7.0 mph 60% 0.00 in FEW
20:15 71.2 °F 57.1 °F 29.91 in SSE 2.0 mph 6.0 mph 61% 0.00 in FEW
20:30 71.0 °F 56.9 °F 29.93 in SW 2.0 mph 9.0 mph 61% 0.00 in FEW
21:00 70.3 °F 56.7 °F 29.94 in Calm   7.0 mph 62% 0.00 in FEW
21:15 70.1 °F 56.9 °F 29.95 in SSE 2.0 mph 7.0 mph 63% 0.00 in CLR
21:30 69.8 °F 56.6 °F 29.96 in SSE 3.0 mph 7.0 mph 63% 0.00 in CLR
21:45 69.6 °F 56.4 °F 29.96 in South 2.0 mph 9.0 mph 63% 0.00 in CLR
22:00 69.3 °F 56.6 °F 29.96 in SSE 1.0 mph 7.0 mph 64% 0.00 in CLR
22:15 68.9 °F 56.6 °F 29.96 in South 1.0 mph 6.0 mph 65% 0.00 in CLR
22:30 68.6 °F 56.8 °F 29.97 in SSW 3.0 mph 12.0 mph 66% 0.00 in CLR
22:45 68.2 °F 56.8 °F 29.96 in South 1.0 mph 6.0 mph 67% 0.00 in CLR
23:00 67.9 °F 56.5 °F 29.96 in Calm   4.0 mph 67% 0.00 in CLR
23:15 67.6 °F 56.2 °F 29.96 in SSW 2.0 mph 6.0 mph 67% 0.00 in CLR
23:30 67.8 °F 56.4 °F 29.97 in SSW 1.0 mph 9.0 mph 67% 0.00 in CLR
23:45 67.5 °F 56.2 °F 29.97 in SSE 1.0 mph 5.0 mph 67% 0.00 in CLR
TarryTown NY Weather
Compliments of Weather Underground - 1.5 mb